createdAt,value
2022-09-28T00:00:06.183Z,13.75
2022-09-28T00:03:23.353Z,15.07
2022-09-28T00:05:55.019Z,12.77
2022-09-28T00:18:16.121Z,14.18
2022-09-28T00:20:47.247Z,13.88
2022-09-28T00:24:27.507Z,13.32
2022-09-28T00:27:50.831Z,13.88
2022-09-28T00:40:13.657Z,13.02
2022-09-28T00:43:07.287Z,14.25
2022-09-28T00:45:38.397Z,14.38
2022-09-28T00:48:37.676Z,13.45
2022-09-28T00:51:30.181Z,13.70
2022-09-28T01:09:13.356Z,19.02
2022-09-28T01:12:04.498Z,15.70
2022-09-28T01:15:27.017Z,17.17
2022-09-28T01:18:30.077Z,16.45
2022-09-28T01:35:09.536Z,15.10
2022-09-28T01:37:46.422Z,16.00
2022-09-28T01:40:58.716Z,16.17
2022-09-28T01:44:04.350Z,15.57
2022-09-28T01:46:49.466Z,15.18
2022-09-28T01:49:38.436Z,15.98
2022-09-28T01:55:32.495Z,14.97
2022-09-28T01:58:13.817Z,15.13
2022-09-28T02:37:58.096Z,15.93
2022-09-28T02:40:56.300Z,16.05
2022-09-28T02:43:52.054Z,15.40
2022-09-28T02:46:32.397Z,15.88
2022-09-28T02:49:31.161Z,15.57
2022-09-28T02:52:08.345Z,14.75
2022-09-28T02:55:19.749Z,16.10
2022-09-28T02:58:16.643Z,15.40
2022-09-28T03:01:11.940Z,16.67
2022-09-28T03:04:26.955Z,15.70
2022-09-28T03:07:28.710Z,15.00
2022-09-28T03:10:25.487Z,16.02
2022-09-28T03:47:53.164Z,14.57
2022-09-28T03:51:05.717Z,15.13
2022-09-28T03:54:26.940Z,14.90
2022-09-28T04:09:24.232Z,15.30
2022-09-28T04:12:58.980Z,14.57
2022-09-28T04:22:43.985Z,14.88
2022-09-28T04:25:34.978Z,15.52
2022-09-28T04:29:07.368Z,14.45
2022-09-28T04:50:04.531Z,15.73
2022-09-28T04:53:18.516Z,14.63
2022-09-28T04:56:14.740Z,14.60
2022-09-28T04:59:06.819Z,14.43
2022-09-28T05:09:18.453Z,15.57
2022-09-28T05:12:19.990Z,15.68
2022-09-28T05:15:32.509Z,15.48
2022-09-28T05:18:47.823Z,14.43
2022-09-28T05:28:03.034Z,14.82
2022-09-28T05:31:02.485Z,15.00
2022-09-28T05:35:08.442Z,15.70
2022-09-28T05:47:08.506Z,16.42
2022-09-28T05:49:39.689Z,16.58
2022-09-28T06:08:52.792Z,15.60
2022-09-28T06:11:34.093Z,14.93
2022-09-28T06:14:15.022Z,15.93
2022-09-28T06:16:46.561Z,14.85
2022-09-28T06:19:17.874Z,15.15
2022-09-28T06:22:24.293Z,15.88
2022-09-28T06:28:02.562Z,15.80
2022-09-28T06:30:36.026Z,14.32
2022-09-28T06:35:56.490Z,15.30
2022-09-28T06:38:28.868Z,16.15
2022-09-28T06:41:00.247Z,15.93
2022-09-28T06:43:34.350Z,15.40
2022-09-28T06:46:32.791Z,15.63
2022-09-28T06:49:22.056Z,15.95
2022-09-28T06:58:05.110Z,15.30
2022-09-28T07:00:38.300Z,15.95
2022-09-28T07:12:16.652Z,15.70
2022-09-28T07:14:58.917Z,15.00
2022-09-28T07:20:20.512Z,14.98
2022-09-28T07:23:01.410Z,15.17
2022-09-28T07:25:46.696Z,16.27
2022-09-28T07:28:47.105Z,15.63
2022-09-28T07:34:46.297Z,15.32
2022-09-28T07:37:50.298Z,15.38
2022-09-28T07:46:36.336Z,16.35
2022-09-28T07:49:17.942Z,15.90
2022-09-28T07:55:14.860Z,15.10
2022-09-28T07:58:05.844Z,16.20
2022-09-28T08:03:50.493Z,15.55
2022-09-28T08:06:21.565Z,15.52
2022-09-28T08:12:09.404Z,16.23
2022-09-28T08:14:52.361Z,15.23
2022-09-28T08:17:41.475Z,15.63
2022-09-28T08:23:18.430Z,15.98
2022-09-28T08:25:55.451Z,15.30
2022-09-28T08:28:27.581Z,15.82
2022-09-28T08:34:19.996Z,15.70
2022-09-28T08:37:16.966Z,15.23
2022-09-28T08:40:06.470Z,15.93
2022-09-28T08:42:47.483Z,15.65
2022-09-28T08:45:37.037Z,15.75
2022-09-28T08:48:33.628Z,14.95
2022-09-28T08:51:28.298Z,15.25
2022-09-28T08:57:43.291Z,15.80
2022-09-28T09:00:24.967Z,15.90
2022-09-28T09:02:56.141Z,15.43
2022-09-28T09:05:57.401Z,15.90
2022-09-28T09:09:13.605Z,15.32
2022-09-28T09:12:12.175Z,16.15
2022-09-28T09:15:06.440Z,15.30
2022-09-28T09:18:06.290Z,16.08
2022-09-28T09:21:19.076Z,15.65
2022-09-28T09:24:05.961Z,15.73
2022-09-28T09:26:42.145Z,15.68
2022-09-28T09:29:48.251Z,15.30
2022-09-28T09:32:55.007Z,15.57
2022-09-28T09:35:50.579Z,15.52
2022-09-28T09:39:03.949Z,16.50
2022-09-28T09:42:10.994Z,15.10
2022-09-28T09:45:37.932Z,14.48
2022-09-28T09:48:55.318Z,15.05
2022-09-28T09:51:37.860Z,15.88
2022-09-28T09:54:40.416Z,14.93
2022-09-28T09:57:23.736Z,15.20
2022-09-28T10:00:05.952Z,16.65
2022-09-28T10:02:54.083Z,18.27
2022-09-28T10:05:38.528Z,18.52
2022-09-28T10:08:18.284Z,19.45
2022-09-28T10:11:09.127Z,20.75
2022-09-28T10:13:44.097Z,20.92
2022-09-28T10:16:35.165Z,20.13
2022-09-28T10:22:33.097Z,20.73
2022-09-28T10:25:14.605Z,20.23
2022-09-28T10:27:53.883Z,18.77
2022-09-28T10:30:28.111Z,19.27
2022-09-28T10:33:02.207Z,19.08
2022-09-28T10:35:45.306Z,19.35
2022-09-28T10:41:15.625Z,19.05
2022-09-28T10:44:12.294Z,18.20
2022-09-28T10:49:58.361Z,21.80
2022-09-28T10:55:28.611Z,25.17
2022-09-28T10:58:02.286Z,24.95
2022-09-28T11:00:46.484Z,26.70
2022-09-28T11:06:17.563Z,26.52
2022-09-28T11:11:45.874Z,33.00
2022-09-28T11:14:41.865Z,36.65
2022-09-28T11:17:35.213Z,38.33
2022-09-28T11:20:28.170Z,34.15
2022-09-28T11:23:21.766Z,33.20
2022-09-28T11:26:22.478Z,31.07
2022-09-28T11:28:55.124Z,31.55
2022-09-28T11:31:41.253Z,29.67
2022-09-28T11:37:37.098Z,30.38
2022-09-28T11:40:47.979Z,31.38
2022-09-28T11:44:06.591Z,29.95
2022-09-28T11:47:16.771Z,30.58
2022-09-28T11:49:51.251Z,31.10
2022-09-28T11:52:50.919Z,30.42
2022-09-28T11:55:54.967Z,29.77
2022-09-28T11:58:36.795Z,30.42
2022-09-28T12:08:16.906Z,28.25
2022-09-28T12:11:35.067Z,29.60
2022-09-28T12:14:27.859Z,28.50
2022-09-28T12:17:24.114Z,29.05
2022-09-28T12:20:05.494Z,27.25
2022-09-28T12:26:14.402Z,28.30
2022-09-28T12:28:52.831Z,27.23
2022-09-28T12:31:37.124Z,27.42
2022-09-28T12:37:12.429Z,27.02
2022-09-28T12:40:28.362Z,27.83
2022-09-28T12:43:30.828Z,28.30
2022-09-28T12:56:16.809Z,26.38
2022-09-28T12:59:09.254Z,26.80
2022-09-28T13:05:34.270Z,26.00
2022-09-28T13:08:35.534Z,27.50
2022-09-28T13:11:39.907Z,28.13
2022-09-28T13:14:33.703Z,27.05
2022-09-28T13:17:08.929Z,26.55
2022-09-28T13:26:22.952Z,26.70
2022-09-28T13:28:58.602Z,26.85
2022-09-28T13:34:46.617Z,26.58
2022-09-28T13:37:19.375Z,27.77
2022-09-28T13:39:57.141Z,28.02
2022-09-28T13:46:24.891Z,26.38
2022-09-28T13:49:24.624Z,26.08
2022-09-28T13:52:07.322Z,26.08
2022-09-28T13:55:18.299Z,26.05
2022-09-28T13:58:26.112Z,25.38
2022-09-28T14:01:09.351Z,27.73
2022-09-28T14:07:33.301Z,25.95
2022-09-28T14:10:27.940Z,25.52
2022-09-28T14:13:01.523Z,26.45
2022-09-28T14:15:47.154Z,24.90
2022-09-28T14:18:53.201Z,25.77
2022-09-28T14:21:43.877Z,25.58
2022-09-28T14:25:04.704Z,25.45
2022-09-28T14:28:10.083Z,25.65
2022-09-28T14:33:36.253Z,25.52
2022-09-28T14:36:11.226Z,26.20
2022-09-28T14:39:11.346Z,26.25
2022-09-28T14:41:45.308Z,25.70
2022-09-28T14:44:18.047Z,25.63
2022-09-28T14:46:50.689Z,25.63
2022-09-28T14:49:22.185Z,24.35
2022-09-28T14:51:56.863Z,24.92
2022-09-28T14:57:42.456Z,24.27
2022-09-28T15:00:26.047Z,25.17
2022-09-28T15:05:50.827Z,24.00
2022-09-28T15:08:25.105Z,23.08
2022-09-28T15:10:56.352Z,24.42
2022-09-28T15:13:50.667Z,24.85
2022-09-28T15:16:26.601Z,24.85
2022-09-28T15:22:21.415Z,25.00
2022-09-28T15:25:03.641Z,23.73
2022-09-28T15:27:44.062Z,23.52
2022-09-28T15:30:21.641Z,23.70
2022-09-28T15:32:58.614Z,24.42
2022-09-28T15:35:50.212Z,24.70
2022-09-28T15:38:21.607Z,24.17
2022-09-28T15:40:53.582Z,24.40
2022-09-28T15:43:34.416Z,23.67
2022-09-28T15:46:21.188Z,24.08
2022-09-28T15:48:53.551Z,23.42
2022-09-28T15:51:26.685Z,24.55
2022-09-28T15:53:59.748Z,24.50
2022-09-28T15:56:31.819Z,23.20
2022-09-28T15:59:33.636Z,23.17
2022-09-28T16:02:13.701Z,24.23
2022-09-28T16:08:28.899Z,23.55
2022-09-28T16:11:23.520Z,23.52
2022-09-28T16:14:20.208Z,24.20
2022-09-28T16:16:53.559Z,23.30
2022-09-28T16:19:34.057Z,23.33
2022-09-28T16:22:15.217Z,22.80
2022-09-28T16:24:57.485Z,23.50
2022-09-28T16:28:03.564Z,23.65
2022-09-28T16:34:59.491Z,22.67
2022-09-28T16:37:34.790Z,22.67
2022-09-28T16:43:14.619Z,21.65
2022-09-28T16:48:35.774Z,22.70
2022-09-28T16:51:26.066Z,21.42
2022-09-28T16:54:18.724Z,22.13
2022-09-28T16:59:58.846Z,21.88
2022-09-28T17:02:49.025Z,21.83
2022-09-28T17:05:23.860Z,22.80
2022-09-28T17:08:06.400Z,22.85
2022-09-28T17:11:23.776Z,21.90
2022-09-28T17:14:13.708Z,21.98
2022-09-28T17:17:08.947Z,21.55
2022-09-28T17:19:42.799Z,20.13
2022-09-28T17:22:15.575Z,21.48
2022-09-28T17:24:47.580Z,22.23
2022-09-28T17:27:22.387Z,21.40
2022-09-28T17:29:53.281Z,20.45
2022-09-28T17:32:24.165Z,20.95
2022-09-28T17:35:06.522Z,21.70
2022-09-28T17:37:46.791Z,21.50
2022-09-28T17:40:27.147Z,21.17
2022-09-28T17:42:59.311Z,21.30
2022-09-28T17:45:32.615Z,21.60
2022-09-28T17:48:03.935Z,20.45
2022-09-28T17:50:37.091Z,20.92
2022-09-28T17:53:08.177Z,21.13
2022-09-28T17:55:40.551Z,21.05
2022-09-28T17:58:24.473Z,21.08
2022-09-28T18:03:39.777Z,21.23
2022-09-28T18:06:15.812Z,19.35
2022-09-28T18:08:46.837Z,20.38
2022-09-28T18:11:21.476Z,20.52
2022-09-28T18:16:23.976Z,20.70
2022-09-28T18:18:55.893Z,19.30
2022-09-28T18:21:26.855Z,20.92
2022-09-28T18:23:57.593Z,20.25
2022-09-28T18:26:29.297Z,20.23
2022-09-28T18:29:22.257Z,19.98
2022-09-28T18:31:53.550Z,19.58
2022-09-28T18:34:24.253Z,18.80
2022-09-28T18:36:54.843Z,20.38
2022-09-28T18:39:25.586Z,20.30
2022-09-28T18:41:56.486Z,19.25
2022-09-28T18:44:28.180Z,19.85
2022-09-28T18:46:59.152Z,19.63
2022-09-28T18:49:31.431Z,20.00
2022-09-28T18:52:02.805Z,19.55
2022-09-28T18:54:34.611Z,19.10
2022-09-28T18:57:07.212Z,19.70
2022-09-28T18:59:37.915Z,18.92
2022-09-28T19:04:54.038Z,20.17
2022-09-28T19:07:25.319Z,19.90
2022-09-28T19:09:56.485Z,20.23
2022-09-28T19:12:27.355Z,20.15
2022-09-28T19:14:58.456Z,21.10
2022-09-28T19:17:29.453Z,19.83
2022-09-28T19:20:23.108Z,18.67
2022-09-28T19:22:53.988Z,19.40
2022-09-28T19:25:24.881Z,19.10
2022-09-28T19:27:55.739Z,19.00
2022-09-28T19:30:26.781Z,19.58
2022-09-28T19:33:17.334Z,18.75
2022-09-28T19:36:00.489Z,21.25
2022-09-28T19:38:33.497Z,18.23
2022-09-28T19:41:09.671Z,19.40
2022-09-28T19:43:44.907Z,19.00
2022-09-28T19:46:16.925Z,18.70
2022-09-28T19:48:50.034Z,18.13
2022-09-28T19:51:21.509Z,18.60
2022-09-28T19:54:12.868Z,19.25
2022-09-28T19:56:44.483Z,19.20
2022-09-28T19:59:16.314Z,18.77
2022-09-28T20:01:47.660Z,20.38
2022-09-28T20:04:19.176Z,18.83
2022-09-28T20:06:51.525Z,18.17
2022-09-28T20:09:22.648Z,20.60
2022-09-28T20:11:54.583Z,18.63
2022-09-28T20:14:26.505Z,18.13
2022-09-28T20:17:01.839Z,20.65
2022-09-28T20:19:33.045Z,19.05
2022-09-28T20:22:04.282Z,17.75
2022-09-28T20:24:35.465Z,18.95
2022-09-28T20:27:06.493Z,18.42
2022-09-28T20:29:37.605Z,17.85
2022-09-28T20:32:08.690Z,17.65
2022-09-28T20:34:39.561Z,17.80
2022-09-28T20:37:10.514Z,18.42
2022-09-28T20:39:44.826Z,17.50
2022-09-28T20:42:16.762Z,18.20
2022-09-28T20:44:47.704Z,18.33
2022-09-28T20:47:18.574Z,18.02
2022-09-28T20:50:10.448Z,17.77
2022-09-28T20:52:41.640Z,17.70
2022-09-28T20:55:13.956Z,17.92
2022-09-28T20:57:45.087Z,17.33
2022-09-28T21:00:16.781Z,17.58
2022-09-28T21:02:52.623Z,17.88
2022-09-28T21:05:23.892Z,18.00
2022-09-28T21:07:54.879Z,17.98
2022-09-28T21:10:25.842Z,17.90
2022-09-28T21:12:56.923Z,17.23
2022-09-28T21:15:28.102Z,16.55
2022-09-28T21:18:19.388Z,17.60
2022-09-28T21:20:52.123Z,17.83
2022-09-28T21:23:25.024Z,18.27
2022-09-28T21:26:09.437Z,17.35
2022-09-28T21:28:40.695Z,16.58
2022-09-28T21:31:13.945Z,17.80
2022-09-28T21:33:44.803Z,17.40
2022-09-28T21:36:15.848Z,17.55
2022-09-28T21:38:47.016Z,17.90
2022-09-28T21:41:18.324Z,17.33
2022-09-28T21:43:49.255Z,16.73
2022-09-28T21:46:20.579Z,18.05
2022-09-28T21:48:55.593Z,16.35
2022-09-28T21:51:27.134Z,17.75
2022-09-28T21:53:58.519Z,17.90
2022-09-28T21:56:29.916Z,17.63
2022-09-28T21:59:02.482Z,18.08
2022-09-28T22:01:56.408Z,17.85
2022-09-28T22:04:27.364Z,16.88
2022-09-28T22:12:13.553Z,16.63
2022-09-28T22:19:58.665Z,16.40
2022-09-28T22:22:29.653Z,16.58
2022-09-28T22:25:00.670Z,16.60
2022-09-28T22:27:33.009Z,17.80
2022-09-28T22:30:03.941Z,16.58
2022-09-28T22:32:34.813Z,16.85
2022-09-28T22:35:05.808Z,16.73
2022-09-28T22:37:36.639Z,16.10
2022-09-28T22:40:08.294Z,16.13
2022-09-28T22:42:39.525Z,16.52
2022-09-28T22:45:11.207Z,16.77
2022-09-28T22:50:36.578Z,16.02
2022-09-28T22:53:08.596Z,15.82
2022-09-28T22:55:39.670Z,15.95
2022-09-28T22:58:10.643Z,17.00
2022-09-28T23:00:41.913Z,16.45
2022-09-28T23:03:13.130Z,15.52
2022-09-28T23:05:52.930Z,16.30
2022-09-28T23:08:24.897Z,16.50
2022-09-28T23:10:55.828Z,16.05
2022-09-28T23:13:27.197Z,16.33
2022-09-28T23:16:06.678Z,16.25
2022-09-28T23:18:42.488Z,18.95
2022-09-28T23:21:19.921Z,16.42
2022-09-28T23:23:59.398Z,18.05
2022-09-28T23:26:33.297Z,17.23
2022-09-28T23:29:04.479Z,17.85
2022-09-28T23:31:35.957Z,19.30
2022-09-28T23:34:08.384Z,21.38
2022-09-28T23:36:39.474Z,18.20
2022-09-28T23:39:13.226Z,19.52
2022-09-28T23:41:44.132Z,18.38
2022-09-28T23:44:15.256Z,18.85
2022-09-28T23:47:09.014Z,17.65
2022-09-28T23:49:40.111Z,16.88
2022-09-28T23:52:11.019Z,18.08
2022-09-28T23:54:41.852Z,17.42
2022-09-28T23:57:12.826Z,16.88
2022-09-28T23:59:43.878Z,17.75
